createdAt,value
2018-11-29T00:00:08.714Z,21.53
2018-11-29T00:02:35.967Z,22.50
2018-11-29T00:05:03.182Z,22.00
2018-11-29T00:07:30.418Z,23.47
2018-11-29T00:09:57.660Z,22.20
2018-11-29T00:12:24.874Z,22.27
2018-11-29T00:14:52.115Z,23.50
2018-11-29T00:17:20.188Z,23.93
2018-11-29T00:19:46.626Z,23.53
2018-11-29T00:22:13.862Z,21.87
2018-11-29T00:24:41.066Z,22.03
2018-11-29T00:27:08.319Z,22.77
2018-11-29T00:29:35.549Z,21.73
2018-11-29T00:32:02.790Z,22.80
2018-11-29T00:34:29.980Z,22.10
2018-11-29T00:36:57.236Z,21.67
2018-11-29T00:39:24.412Z,23.47
2018-11-29T00:41:51.601Z,21.70
2018-11-29T00:44:18.817Z,22.23
2018-11-29T00:46:46.101Z,22.23
2018-11-29T00:49:13.335Z,22.23
2018-11-29T00:51:40.578Z,24.47
2018-11-29T00:54:07.814Z,24.10
2018-11-29T00:56:35.056Z,23.53
2018-11-29T00:59:02.307Z,23.27
2018-11-29T01:01:29.542Z,24.23
2018-11-29T01:03:56.780Z,22.70
2018-11-29T01:06:24.006Z,21.70
2018-11-29T01:08:51.745Z,22.23
2018-11-29T01:11:18.973Z,21.90
2018-11-29T01:13:46.210Z,24.80
2018-11-29T01:16:13.463Z,22.60
2018-11-29T01:18:40.674Z,24.17
2018-11-29T01:21:07.889Z,21.90
2018-11-29T01:23:35.130Z,23.30
2018-11-29T01:26:02.346Z,22.87
2018-11-29T01:28:29.611Z,23.23
2018-11-29T01:30:56.826Z,20.77
2018-11-29T01:33:23.991Z,23.87
2018-11-29T01:35:51.247Z,24.53
2018-11-29T01:38:18.470Z,21.10
2018-11-29T01:40:45.683Z,23.73
2018-11-29T01:43:12.914Z,21.73
2018-11-29T01:45:40.163Z,24.10
2018-11-29T01:48:07.446Z,22.97
2018-11-29T01:50:34.662Z,23.67
2018-11-29T01:53:01.888Z,21.27
2018-11-29T01:55:29.130Z,24.37
2018-11-29T01:57:56.372Z,22.30
2018-11-29T02:00:23.599Z,22.20
2018-11-29T02:02:51.210Z,23.57
2018-11-29T02:05:18.417Z,22.00
2018-11-29T02:07:45.666Z,21.90
2018-11-29T02:10:18.922Z,20.63
2018-11-29T02:12:46.166Z,21.93
2018-11-29T02:15:13.355Z,23.70
2018-11-29T02:17:40.602Z,22.07
2018-11-29T02:20:08.643Z,22.97
2018-11-29T02:22:35.883Z,21.97
2018-11-29T02:25:03.124Z,22.07
2018-11-29T02:27:33.203Z,22.10
2018-11-29T02:30:00.500Z,21.77
2018-11-29T02:32:27.759Z,21.27
2018-11-29T02:34:54.999Z,22.50
2018-11-29T02:37:22.270Z,22.27
2018-11-29T02:39:49.475Z,22.90
2018-11-29T02:42:16.701Z,23.50
2018-11-29T02:44:43.955Z,22.47
2018-11-29T02:47:11.191Z,22.03
2018-11-29T02:49:38.402Z,22.90
2018-11-29T02:52:05.610Z,24.03
2018-11-29T02:54:32.774Z,23.40
2018-11-29T02:56:59.975Z,24.13
2018-11-29T02:59:27.275Z,22.63
2018-11-29T03:01:54.558Z,25.33
2018-11-29T03:04:21.782Z,24.27
2018-11-29T03:06:49.019Z,25.30
2018-11-29T03:09:16.258Z,25.03
2018-11-29T03:11:43.542Z,23.40
2018-11-29T03:14:10.716Z,24.50
2018-11-29T03:16:37.969Z,24.33
2018-11-29T03:19:05.194Z,26.20
2018-11-29T03:21:32.431Z,25.60
2018-11-29T03:23:59.656Z,25.80
2018-11-29T03:26:26.886Z,25.87
2018-11-29T03:28:54.111Z,26.30
2018-11-29T03:31:21.341Z,24.40
2018-11-29T03:33:48.619Z,25.20
2018-11-29T03:36:15.844Z,23.10
2018-11-29T03:38:43.097Z,23.83
2018-11-29T03:41:10.376Z,25.17
2018-11-29T03:43:37.620Z,23.87
2018-11-29T03:46:04.882Z,25.40
2018-11-29T03:48:32.072Z,25.73
2018-11-29T03:50:59.305Z,24.23
2018-11-29T03:53:26.560Z,24.43
2018-11-29T03:55:53.788Z,25.03
2018-11-29T03:58:21.044Z,25.03
2018-11-29T04:00:48.263Z,26.20
2018-11-29T04:03:15.538Z,25.53
2018-11-29T04:05:42.764Z,24.17
2018-11-29T04:08:09.989Z,25.63
2018-11-29T04:10:37.228Z,23.77
2018-11-29T04:13:04.665Z,24.13
2018-11-29T04:15:31.888Z,26.60
2018-11-29T04:17:59.078Z,26.30
2018-11-29T04:20:26.335Z,23.20
2018-11-29T04:22:53.574Z,25.17
2018-11-29T04:25:20.823Z,25.30
2018-11-29T04:27:48.070Z,25.47
2018-11-29T04:30:15.729Z,25.67
2018-11-29T04:32:42.979Z,24.57
2018-11-29T04:35:10.302Z,24.13
2018-11-29T04:37:37.639Z,25.33
2018-11-29T04:40:07.031Z,21.70
2018-11-29T04:42:34.266Z,22.17
2018-11-29T04:45:01.551Z,22.27
2018-11-29T04:47:28.802Z,21.77
2018-11-29T04:49:55.979Z,22.37
2018-11-29T04:52:23.218Z,19.77
2018-11-29T04:54:50.499Z,21.73
2018-11-29T04:57:17.734Z,21.23
2018-11-29T04:59:47.169Z,21.00
2018-11-29T05:02:14.422Z,21.57
2018-11-29T05:04:41.639Z,22.37
2018-11-29T05:07:08.883Z,22.77
2018-11-29T05:09:36.141Z,22.83
2018-11-29T05:12:03.386Z,23.43
2018-11-29T05:14:30.640Z,20.13
2018-11-29T05:16:57.842Z,21.90
2018-11-29T05:19:25.089Z,22.63
2018-11-29T05:21:52.303Z,22.17
2018-11-29T05:24:19.541Z,22.90
2018-11-29T05:26:46.738Z,21.70
2018-11-29T05:29:13.998Z,22.70
2018-11-29T05:31:41.208Z,22.07
2018-11-29T05:34:08.395Z,22.27
2018-11-29T05:36:35.627Z,23.57
2018-11-29T05:39:03.899Z,24.57
2018-11-29T05:41:31.128Z,23.50
2018-11-29T05:43:58.342Z,23.50
2018-11-29T05:46:25.596Z,24.40
2018-11-29T05:48:52.907Z,23.40
2018-11-29T05:51:20.146Z,22.70
2018-11-29T05:53:47.373Z,23.77
2018-11-29T05:56:14.784Z,24.33
2018-11-29T05:58:42.002Z,23.57
2018-11-29T06:01:14.631Z,24.37
2018-11-29T06:03:41.879Z,24.77
2018-11-29T06:06:09.116Z,23.63
2018-11-29T06:08:36.354Z,23.67
2018-11-29T06:11:03.842Z,24.37
2018-11-29T06:13:31.096Z,22.87
2018-11-29T06:15:58.330Z,23.83
2018-11-29T06:18:25.586Z,23.20
2018-11-29T06:20:52.836Z,23.17
2018-11-29T06:23:20.076Z,23.00
2018-11-29T06:25:47.295Z,23.37
2018-11-29T06:28:14.523Z,24.40
2018-11-29T06:30:45.220Z,22.47
2018-11-29T06:33:12.445Z,23.83
2018-11-29T06:35:39.687Z,23.87
2018-11-29T06:38:06.859Z,24.87
2018-11-29T06:40:34.749Z,25.67
2018-11-29T06:43:01.954Z,23.40
2018-11-29T06:45:29.186Z,23.80
2018-11-29T06:47:56.414Z,24.00
2018-11-29T06:50:23.658Z,24.63
2018-11-29T06:52:51.019Z,23.87
2018-11-29T06:55:18.651Z,23.67
2018-11-29T06:57:45.883Z,22.73
2018-11-29T07:00:13.606Z,23.63
2018-11-29T07:02:40.859Z,22.97
2018-11-29T07:05:08.152Z,22.97
2018-11-29T07:07:35.393Z,22.53
2018-11-29T07:10:03.275Z,23.60
2018-11-29T07:12:30.514Z,25.17
2018-11-29T07:14:57.739Z,23.70
2018-11-29T07:17:24.975Z,24.93
2018-11-29T07:19:52.135Z,23.67
2018-11-29T07:22:19.363Z,23.70
2018-11-29T07:24:46.603Z,22.90
2018-11-29T07:27:13.851Z,22.03
2018-11-29T07:29:41.070Z,22.20
2018-11-29T07:32:09.267Z,22.70
2018-11-29T07:34:36.482Z,20.57
2018-11-29T07:37:03.726Z,21.27
2018-11-29T07:39:30.970Z,20.37
2018-11-29T07:41:58.249Z,19.73
2018-11-29T07:44:25.473Z,21.10
2018-11-29T07:46:52.698Z,19.93
2018-11-29T07:49:19.941Z,19.70
2018-11-29T07:51:47.119Z,19.60
2018-11-29T07:54:14.309Z,19.07
2018-11-29T07:56:41.555Z,19.10
2018-11-29T07:59:08.795Z,18.60
2018-11-29T08:01:35.989Z,18.87
2018-11-29T08:04:06.106Z,19.80
2018-11-29T08:06:33.513Z,16.97
2018-11-29T08:09:00.766Z,17.47
2018-11-29T08:11:27.995Z,16.60
2018-11-29T08:13:55.255Z,15.73
2018-11-29T08:16:22.493Z,17.33
2018-11-29T08:18:49.817Z,17.60
2018-11-29T08:21:17.039Z,17.20
2018-11-29T08:23:44.284Z,17.67
2018-11-29T08:26:11.511Z,16.27
2018-11-29T08:28:38.782Z,16.10
2018-11-29T08:31:06.035Z,16.03
2018-11-29T08:33:33.226Z,15.57
2018-11-29T08:36:00.475Z,14.43
2018-11-29T08:38:27.694Z,15.53
2018-11-29T08:40:54.915Z,16.93
2018-11-29T08:43:22.243Z,15.67
2018-11-29T08:45:49.433Z,15.03
2018-11-29T08:48:16.695Z,15.77
2018-11-29T08:50:43.922Z,15.70
2018-11-29T08:53:11.194Z,13.90
2018-11-29T08:55:38.431Z,17.40
2018-11-29T08:58:05.689Z,16.53
2018-11-29T09:00:32.924Z,13.70
2018-11-29T09:03:00.154Z,13.27
2018-11-29T09:05:27.403Z,13.63
2018-11-29T09:07:54.558Z,14.73
2018-11-29T09:10:22.182Z,14.20
2018-11-29T09:12:49.406Z,14.50
2018-11-29T09:15:16.815Z,13.50
2018-11-29T09:17:44.055Z,13.80
2018-11-29T09:20:11.803Z,14.53
2018-11-29T09:22:39.087Z,13.57
2018-11-29T09:25:07.364Z,14.13
2018-11-29T09:27:34.691Z,15.03
2018-11-29T09:30:01.870Z,14.93
2018-11-29T09:32:29.138Z,15.10
2018-11-29T09:34:56.374Z,14.87
2018-11-29T09:37:23.605Z,13.87
2018-11-29T09:39:50.853Z,14.37
2018-11-29T09:42:18.086Z,14.23
2018-11-29T09:44:45.335Z,15.03
2018-11-29T09:47:12.606Z,15.23
2018-11-29T09:49:39.838Z,14.27
2018-11-29T09:52:07.116Z,14.03
2018-11-29T09:54:34.343Z,14.73
2018-11-29T09:57:01.563Z,14.67
2018-11-29T09:59:28.734Z,14.37
2018-11-29T10:01:56.057Z,14.80
2018-11-29T10:04:23.226Z,13.83
2018-11-29T10:06:50.495Z,14.50
2018-11-29T10:09:17.735Z,15.03
2018-11-29T10:11:45.010Z,15.53
2018-11-29T10:14:12.219Z,13.87
2018-11-29T10:16:39.467Z,14.60
2018-11-29T10:19:06.693Z,13.93
2018-11-29T10:21:33.954Z,14.20
2018-11-29T10:24:01.184Z,14.47
2018-11-29T10:26:28.432Z,13.57
2018-11-29T10:28:55.675Z,14.53
2018-11-29T10:31:22.885Z,14.20
2018-11-29T10:33:50.133Z,14.47
2018-11-29T10:36:17.375Z,13.97
2018-11-29T10:38:44.604Z,13.53
2018-11-29T10:41:12.917Z,12.58
2018-11-29T10:43:39.073Z,14.77
2018-11-29T10:46:06.262Z,13.27
2018-11-29T10:48:33.475Z,13.40
2018-11-29T10:51:00.707Z,14.40
2018-11-29T10:53:27.930Z,13.00
2018-11-29T10:55:55.115Z,14.43
2018-11-29T10:58:22.361Z,12.20
2018-11-29T11:00:55.259Z,12.63
2018-11-29T11:03:22.484Z,13.90
2018-11-29T11:05:51.095Z,13.90
2018-11-29T11:08:18.563Z,12.53
2018-11-29T11:10:45.785Z,12.90
2018-11-29T11:13:13.012Z,12.27
2018-11-29T11:15:40.275Z,14.23
2018-11-29T11:18:08.113Z,13.97
2018-11-29T11:20:35.316Z,14.03
2018-11-29T11:23:02.535Z,12.40
2018-11-29T11:25:29.719Z,13.70
2018-11-29T11:27:56.970Z,13.00
2018-11-29T11:30:24.192Z,14.20
2018-11-29T11:32:51.598Z,13.73
2018-11-29T11:35:18.846Z,12.40
2018-11-29T11:37:46.076Z,12.73
2018-11-29T11:40:14.447Z,13.30
2018-11-29T11:42:41.793Z,12.67
2018-11-29T11:45:12.585Z,12.47
2018-11-29T11:47:39.788Z,11.87
2018-11-29T11:50:10.817Z,12.40
2018-11-29T11:52:35.487Z,12.90
2018-11-29T11:55:02.699Z,12.20
2018-11-29T11:57:29.974Z,13.03
2018-11-29T11:59:57.190Z,12.47
2018-11-29T12:02:27.369Z,12.53
2018-11-29T12:04:51.647Z,12.30
2018-11-29T12:07:18.856Z,11.83
2018-11-29T12:09:46.117Z,12.27
2018-11-29T12:12:13.299Z,12.47
2018-11-29T12:14:40.539Z,12.37
2018-11-29T12:17:07.765Z,13.07
2018-11-29T12:19:35.021Z,11.53
2018-11-29T12:22:02.234Z,13.03
2018-11-29T12:24:29.576Z,12.23
2018-11-29T12:26:56.792Z,11.97
2018-11-29T12:29:24.034Z,13.10
2018-11-29T12:31:51.338Z,11.70
2018-11-29T12:34:18.594Z,11.03
2018-11-29T12:36:45.796Z,11.30
2018-11-29T12:39:13.046Z,12.10
2018-11-29T12:41:40.391Z,11.57
2018-11-29T12:44:07.641Z,12.40
2018-11-29T12:46:34.871Z,12.03
2018-11-29T12:49:02.138Z,11.87
2018-11-29T12:51:29.358Z,12.30
2018-11-29T12:53:56.583Z,12.27
2018-11-29T12:56:23.816Z,11.73
2018-11-29T12:58:51.008Z,12.47
2018-11-29T13:01:18.255Z,13.07
2018-11-29T13:03:45.519Z,13.97
2018-11-29T13:06:12.773Z,13.10
2018-11-29T13:08:40.019Z,12.40
2018-11-29T13:11:10.709Z,11.60
2018-11-29T13:13:34.570Z,12.87
2018-11-29T13:16:01.791Z,11.87
2018-11-29T13:18:29.036Z,10.47
2018-11-29T13:21:00.894Z,11.20
2018-11-29T13:23:28.176Z,11.77
2018-11-29T13:25:55.430Z,11.07
2018-11-29T13:28:22.615Z,10.20
2018-11-29T13:30:49.948Z,9.87
2018-11-29T13:33:17.127Z,14.20
2018-11-29T13:35:44.399Z,11.43
2018-11-29T13:38:12.217Z,10.13
2018-11-29T13:40:40.031Z,10.53
2018-11-29T13:43:07.259Z,10.30
2018-11-29T13:45:34.536Z,9.40
2018-11-29T13:48:01.819Z,10.47
2018-11-29T13:50:29.053Z,10.90
2018-11-29T13:52:56.339Z,9.63
2018-11-29T13:55:23.632Z,10.50
2018-11-29T13:57:50.870Z,10.20
2018-11-29T14:00:18.549Z,10.17
2018-11-29T14:02:47.120Z,10.77
2018-11-29T14:05:13.695Z,10.83
2018-11-29T14:07:40.967Z,10.50
2018-11-29T14:10:11.739Z,10.30
2018-11-29T14:12:39.062Z,9.93
2018-11-29T14:15:08.112Z,10.00
2018-11-29T14:17:35.406Z,10.23
2018-11-29T14:20:02.687Z,9.13
2018-11-29T14:22:29.959Z,10.10
2018-11-29T14:24:57.210Z,11.67
2018-11-29T14:27:24.467Z,9.93
2018-11-29T14:29:51.690Z,12.03
2018-11-29T14:32:18.930Z,11.07
2018-11-29T14:34:51.732Z,10.87
2018-11-29T14:37:16.302Z,10.60
2018-11-29T14:39:43.475Z,10.03
2018-11-29T14:42:10.679Z,10.87
2018-11-29T14:44:37.910Z,10.07
2018-11-29T14:47:05.187Z,10.93
2018-11-29T14:49:32.413Z,9.03
2018-11-29T14:51:59.610Z,10.00
2018-11-29T14:54:26.863Z,11.10
2018-11-29T14:56:54.144Z,10.50
2018-11-29T14:59:21.364Z,10.53
2018-11-29T15:01:48.606Z,11.20
2018-11-29T15:04:15.778Z,9.70
2018-11-29T15:06:43.052Z,9.60
2018-11-29T15:09:10.314Z,9.80
2018-11-29T15:11:37.595Z,10.17
2018-11-29T15:14:04.835Z,10.67
2018-11-29T15:16:32.135Z,10.60
2018-11-29T15:18:59.392Z,10.80
2018-11-29T15:21:26.639Z,11.07
2018-11-29T15:23:53.925Z,10.50
2018-11-29T15:26:21.176Z,12.30
2018-11-29T15:28:48.462Z,12.00
2018-11-29T15:31:15.671Z,11.20
2018-11-29T15:33:42.925Z,10.87
2018-11-29T15:36:10.144Z,10.63
2018-11-29T15:38:37.405Z,10.70
2018-11-29T15:41:05.553Z,10.50
2018-11-29T15:43:32.813Z,10.10
2018-11-29T15:46:00.033Z,11.17
2018-11-29T15:48:27.274Z,10.50
2018-11-29T15:50:54.502Z,12.90
2018-11-29T15:53:21.750Z,10.00
2018-11-29T15:55:48.990Z,18.17
2018-11-29T15:58:16.190Z,16.73
2018-11-29T16:00:43.511Z,10.90
2018-11-29T16:03:10.719Z,17.73
2018-11-29T16:05:41.078Z,12.03
2018-11-29T16:08:05.275Z,9.73
2018-11-29T16:10:32.519Z,9.67
2018-11-29T16:12:59.723Z,10.73
2018-11-29T16:15:26.959Z,11.80
2018-11-29T16:17:56.375Z,11.23
2018-11-29T16:20:26.556Z,10.00
2018-11-29T16:22:53.894Z,10.87
2018-11-29T16:25:21.158Z,10.37
2018-11-29T16:27:48.437Z,11.83
2018-11-29T16:30:21.390Z,10.33
2018-11-29T16:32:48.636Z,10.90
2018-11-29T16:35:15.911Z,10.30
2018-11-29T16:37:43.107Z,10.87
2018-11-29T16:40:10.278Z,10.80
2018-11-29T16:42:37.589Z,10.70
2018-11-29T16:45:07.083Z,10.37
2018-11-29T16:47:34.342Z,10.27
2018-11-29T16:50:01.515Z,10.30
2018-11-29T16:52:28.769Z,9.70
2018-11-29T16:54:56.045Z,11.37
2018-11-29T16:57:23.304Z,11.17
2018-11-29T16:59:50.572Z,11.07
2018-11-29T17:02:17.839Z,11.40
2018-11-29T17:04:45.068Z,11.53
2018-11-29T17:07:12.290Z,10.47
2018-11-29T17:09:39.558Z,10.23
2018-11-29T17:12:06.770Z,9.63
2018-11-29T17:14:34.087Z,10.30
2018-11-29T17:17:01.354Z,12.00
2018-11-29T17:19:28.613Z,9.83
2018-11-29T17:21:55.790Z,10.47
2018-11-29T17:24:25.595Z,10.27
2018-11-29T17:26:52.839Z,9.97
2018-11-29T17:29:20.076Z,9.23
2018-11-29T17:31:48.394Z,10.97
2018-11-29T17:34:15.607Z,10.77
2018-11-29T17:36:42.852Z,10.40
2018-11-29T17:39:10.098Z,9.93
2018-11-29T17:41:37.342Z,8.73
2018-11-29T17:44:04.859Z,9.60
2018-11-29T17:46:32.163Z,9.30
2018-11-29T17:48:59.398Z,9.27
2018-11-29T17:51:26.661Z,8.67
2018-11-29T17:53:53.952Z,9.00
2018-11-29T17:56:21.226Z,9.13
2018-11-29T17:58:48.468Z,10.13
2018-11-29T18:01:15.660Z,9.33
2018-11-29T18:03:42.910Z,8.20
2018-11-29T18:06:10.150Z,9.80
2018-11-29T18:08:37.545Z,10.63
2018-11-29T18:11:05.416Z,9.83
2018-11-29T18:13:33.343Z,10.17
2018-11-29T18:16:00.582Z,9.63
2018-11-29T18:18:27.771Z,9.57
2018-11-29T18:20:55.006Z,9.23
2018-11-29T18:23:22.254Z,10.20
2018-11-29T18:25:49.488Z,9.43
2018-11-29T18:28:16.686Z,8.60
2018-11-29T18:30:43.946Z,9.77
2018-11-29T18:33:11.167Z,9.63
2018-11-29T18:35:38.401Z,10.23
2018-11-29T18:38:05.935Z,8.97
2018-11-29T18:40:33.347Z,9.27
2018-11-29T18:43:00.611Z,9.60
2018-11-29T18:45:27.886Z,8.90
2018-11-29T18:47:55.195Z,9.80
2018-11-29T18:50:22.799Z,9.03
2018-11-29T18:52:50.189Z,9.67
2018-11-29T18:55:17.531Z,9.93
2018-11-29T18:57:44.805Z,10.03
2018-11-29T19:00:13.503Z,10.57
2018-11-29T19:02:40.860Z,9.13
2018-11-29T19:05:08.283Z,8.77
2018-11-29T19:07:36.307Z,8.13
2018-11-29T19:10:02.963Z,9.03
2018-11-29T19:12:30.210Z,8.60
2018-11-29T19:14:57.455Z,8.47
2018-11-29T19:17:25.190Z,8.97
2018-11-29T19:19:51.973Z,10.57
2018-11-29T19:22:19.235Z,10.00
2018-11-29T19:24:46.471Z,9.17
2018-11-29T19:27:13.695Z,9.33
2018-11-29T19:29:40.967Z,9.20
2018-11-29T19:32:08.161Z,9.33
2018-11-29T19:34:35.418Z,9.57
2018-11-29T19:37:02.659Z,8.87
2018-11-29T19:39:31.556Z,9.33
2018-11-29T19:41:58.743Z,8.77
2018-11-29T19:44:25.990Z,8.73
2018-11-29T19:46:53.247Z,9.50
2018-11-29T19:49:20.503Z,13.90
2018-11-29T19:51:47.769Z,8.73
2018-11-29T19:54:14.937Z,10.57
2018-11-29T19:56:42.195Z,9.77
2018-11-29T19:59:09.501Z,8.67
2018-11-29T20:01:36.704Z,9.43
2018-11-29T20:04:03.999Z,13.20
2018-11-29T20:06:31.271Z,8.30
2018-11-29T20:08:58.478Z,10.20
2018-11-29T20:11:25.755Z,9.83
2018-11-29T20:13:52.999Z,9.77
2018-11-29T20:16:20.246Z,9.17
2018-11-29T20:18:47.591Z,10.13
2018-11-29T20:21:14.793Z,10.10
2018-11-29T20:23:42.047Z,10.43
2018-11-29T20:26:09.339Z,9.23
2018-11-29T20:28:36.614Z,9.50
2018-11-29T20:31:04.168Z,11.93
2018-11-29T20:33:31.413Z,10.73
2018-11-29T20:35:58.694Z,10.13
2018-11-29T20:38:25.926Z,10.40
2018-11-29T20:40:53.187Z,10.07
2018-11-29T20:43:20.509Z,10.43
2018-11-29T20:45:52.163Z,9.53
2018-11-29T20:48:21.050Z,10.67
2018-11-29T20:50:48.568Z,9.87
2018-11-29T20:53:16.827Z,11.53
2018-11-29T20:55:44.089Z,11.20
2018-11-29T20:58:11.326Z,11.57
2018-11-29T21:00:38.574Z,11.50
2018-11-29T21:03:06.378Z,11.20
2018-11-29T21:05:33.663Z,10.67
2018-11-29T21:08:01.259Z,11.00
2018-11-29T21:10:28.529Z,10.53
2018-11-29T21:12:55.833Z,10.53
2018-11-29T21:15:23.093Z,11.37
2018-11-29T21:17:50.382Z,11.07
2018-11-29T21:20:18.191Z,10.90
2018-11-29T21:22:45.947Z,11.50
2018-11-29T21:25:13.971Z,11.37
2018-11-29T21:27:41.177Z,13.68
2018-11-29T21:30:10.076Z,11.60
2018-11-29T21:32:37.314Z,12.27
2018-11-29T21:35:04.733Z,11.73
2018-11-29T21:37:32.021Z,11.77
2018-11-29T21:39:59.218Z,11.10
2018-11-29T21:42:26.453Z,12.37
2018-11-29T21:44:53.974Z,12.13
2018-11-29T21:47:21.364Z,12.67
2018-11-29T21:49:48.978Z,12.43
2018-11-29T21:52:16.418Z,12.13
2018-11-29T21:54:43.748Z,12.63
2018-11-29T21:57:10.976Z,12.77
2018-11-29T21:59:38.198Z,12.87
2018-11-29T22:02:05.464Z,12.67
2018-11-29T22:04:32.734Z,11.97
2018-11-29T22:06:59.993Z,12.47
2018-11-29T22:09:27.256Z,13.07
2018-11-29T22:11:54.454Z,11.70
2018-11-29T22:14:21.641Z,12.30
2018-11-29T22:16:48.933Z,11.73
2018-11-29T22:19:16.495Z,12.83
2018-11-29T22:21:44.176Z,12.67
2018-11-29T22:24:11.431Z,12.87
2018-11-29T22:26:38.658Z,12.57
2018-11-29T22:29:05.915Z,13.60
2018-11-29T22:31:33.197Z,13.03
2018-11-29T22:34:00.503Z,13.40
2018-11-29T22:36:27.767Z,11.80
2018-11-29T22:38:55.003Z,13.10
2018-11-29T22:41:22.245Z,13.50
2018-11-29T22:43:49.558Z,12.00
2018-11-29T22:46:16.815Z,13.40
2018-11-29T22:48:44.066Z,13.27
2018-11-29T22:51:11.296Z,13.47
2018-11-29T22:53:38.559Z,13.10
2018-11-29T22:56:05.865Z,13.43
2018-11-29T22:58:33.074Z,13.03
2018-11-29T23:01:00.367Z,13.70
2018-11-29T23:03:27.619Z,13.20
2018-11-29T23:05:57.330Z,13.77
2018-11-29T23:08:24.584Z,13.93
2018-11-29T23:10:51.840Z,13.70
2018-11-29T23:13:19.074Z,13.47
2018-11-29T23:15:46.328Z,12.87
2018-11-29T23:18:13.550Z,14.53
2018-11-29T23:20:40.807Z,14.40
2018-11-29T23:23:08.075Z,13.97
2018-11-29T23:25:35.341Z,12.83
2018-11-29T23:28:02.930Z,14.77
2018-11-29T23:30:30.171Z,14.40
2018-11-29T23:32:57.422Z,13.70
2018-11-29T23:35:24.689Z,14.07
2018-11-29T23:37:51.958Z,15.07
2018-11-29T23:40:19.192Z,14.30
2018-11-29T23:42:46.444Z,13.67
2018-11-29T23:45:13.769Z,12.80
2018-11-29T23:47:41.126Z,15.57
2018-11-29T23:50:10.915Z,14.30
2018-11-29T23:52:38.194Z,13.97
2018-11-29T23:55:06.307Z,14.53
2018-11-29T23:57:33.559Z,15.40
